Time;durP1;ratioP1;P1;durP2;ratioP2;P2;SDS_P1;SDS_P2;PMS_P1;PMS_P2;Temp;Humidity;BMP_temperature;BMP_pressure;BME280_temperature;BME280_humidity;BME280_pressure;Samples;Min_cycle;Max_cycle;Signal;HPM_P1;HPM_P2
2023/02/02 00:01:26;;;;;;;1.13;1.10;;;7.40;60.50;;;;;;6202183;28;20760;-64
2023/02/02 00:04:30;;;;;;;0.83;0.83;;;7.40;60.70;;;;;;6201899;28;20480;-64
2023/02/02 00:07:34;;;;;;;1.53;1.30;;;7.40;60.80;;;;;;6201862;28;20477;-64
2023/02/02 00:10:38;;;;;;;1.63;1.13;;;7.40;61.30;;;;;;6201754;28;20534;-64
2023/02/02 00:13:41;;;;;;;1.80;1.30;;;7.50;61.70;;;;;;6201682;28;20473;-64
2023/02/02 00:16:46;;;;;;;2.03;1.60;;;7.50;61.40;;;;;;6192906;28;20917;-64
2023/02/02 00:19:49;;;;;;;1.63;1.40;;;7.60;61.80;;;;;;6200980;28;20816;-64
2023/02/02 00:22:52;;;;;;;1.30;1.07;;;7.50;61.20;;;;;;6201302;28;20493;-64
2023/02/02 00:25:57;;;;;;;1.50;1.30;;;7.50;61.10;;;;;;6201273;28;20590;-64
2023/02/02 00:29:00;;;;;;;1.77;1.13;;;7.50;60.20;;;;;;6201027;28;20831;-64
2023/02/02 00:32:03;;;;;;;1.40;0.80;;;7.50;59.90;;;;;;6201155;28;20775;-64
2023/02/02 00:35:07;;;;;;;1.27;1.17;;;7.50;59.70;;;;;;6201474;28;20484;-64
2023/02/02 00:38:11;;;;;;;1.30;1.00;;;7.50;59.50;;;;;;6201284;28;20965;-64
2023/02/02 00:41:15;;;;;;;1.63;1.00;;;7.60;58.90;;;;;;6201095;28;20817;-64
2023/02/02 00:47:39;;;;;;;0.77;0.77;;;7.70;58.70;;;;;;6201054;28;20476;-65
2023/02/02 00:50:42;;;;;;;0.80;0.80;;;7.70;58.90;;;;;;6200828;28;20478;-65
2023/02/02 00:53:45;;;;;;;1.20;1.10;;;7.70;58.80;;;;;;6200310;28;21008;-64
2023/02/02 00:56:50;;;;;;;0.70;0.70;;;7.70;58.70;;;;;;6176877;28;20763;-65
2023/02/02 00:59:53;;;;;;;0.77;0.77;;;7.80;58.70;;;;;;6176499;28;20476;-65
2023/02/02 01:03:03;;;;;;;0.97;0.87;;;7.70;58.90;;;;;;6176709;28;20482;-65
2023/02/02 01:06:06;;;;;;;0.80;0.80;;;7.70;58.70;;;;;;6176983;28;20445;-65
2023/02/02 01:09:09;;;;;;;0.70;0.70;;;7.80;58.70;;;;;;6176501;28;20481;-64
2023/02/02 01:12:14;;;;;;;0.70;0.70;;;7.80;58.70;;;;;;6176716;28;20470;-64
2023/02/02 01:15:17;;;;;;;0.80;0.70;;;7.80;58.80;;;;;;6176410;28;20470;-64
2023/02/02 01:18:20;;;;;;;1.37;0.70;;;7.80;58.80;;;;;;6167683;28;20496;-64
2023/02/02 01:21:24;;;;;;;0.60;0.60;;;7.80;58.80;;;;;;6181585;28;20472;-64
2023/02/02 01:24:27;;;;;;;1.10;0.80;;;7.80;59.00;;;;;;6195803;28;20572;-64
2023/02/02 01:27:31;;;;;;;0.90;0.90;;;7.90;59.10;;;;;;6182528;28;20484;-64
2023/02/02 01:30:34;;;;;;;0.60;0.60;;;7.90;59.30;;;;;;6200544;28;20476;-64
2023/02/02 01:33:38;;;;;;;0.70;0.70;;;7.90;59.30;;;;;;6193585;28;20555;-64
2023/02/02 01:36:41;;;;;;;0.70;0.70;;;7.80;59.50;;;;;;6176318;28;20496;-64
2023/02/02 01:39:44;;;;;;;1.10;0.70;;;7.80;59.80;;;;;;6176442;28;20473;-64
2023/02/02 01:42:49;;;;;;;0.70;0.70;;;7.80;60.00;;;;;;6176411;28;20482;-64
2023/02/02 01:45:53;;;;;;;0.80;0.77;;;7.80;60.40;;;;;;6176352;28;20481;-64
2023/02/02 01:49:05;;;;;;;2.63;0.90;;;7.70;60.70;;;;;;6175997;28;20624;-64
2023/02/02 01:52:10;;;;;;;1.67;1.30;;;7.70;61.00;;;;;;6176508;28;20489;-64
2023/02/02 01:55:15;;;;;;;0.50;0.50;;;7.70;61.20;;;;;;6176182;28;20481;-64
2023/02/02 01:58:24;;;;;;;1.27;1.00;;;7.70;61.70;;;;;;6176250;28;20486;-64
2023/02/02 02:01:28;;;;;;;1.40;0.67;;;7.70;61.60;;;;;;6176214;28;20485;-64
2023/02/02 02:04:32;;;;;;;0.60;0.60;;;7.60;62.00;;;;;;6184357;28;20480;-64
2023/02/02 02:07:35;;;;;;;0.97;0.90;;;7.60;62.50;;;;;;6204621;28;20941;-64
2023/02/02 02:10:39;;;;;;;0.73;0.73;;;7.60;62.50;;;;;;6204454;28;20476;-64
2023/02/02 02:17:18;;;;;;;0.70;0.70;;;7.60;62.50;;;;;;6180126;28;20851;-64
2023/02/02 02:29:00;;;;;;;0.70;0.67;;;7.50;63.10;;;;;;6184788;28;20488;-64
2023/02/02 02:32:18;;;;;;;0.63;0.63;;;7.50;63.60;;;;;;6185068;28;20483;-64
2023/02/02 02:35:33;;;;;;;0.50;0.50;;;7.50;64.00;;;;;;6203933;28;20798;-64
2023/02/02 02:38:41;;;;;;;0.40;0.40;;;7.40;64.70;;;;;;6203444;28;20485;-65
2023/02/02 02:41:49;;;;;;;0.70;0.70;;;7.40;64.30;;;;;;6204085;28;20469;-64
2023/02/02 02:44:55;;;;;;;1.13;0.60;;;7.40;64.10;;;;;;6203927;28;20480;-64
2023/02/02 02:48:00;;;;;;;0.50;0.50;;;7.50;64.40;;;;;;6203824;28;20417;-64
2023/02/02 02:51:07;;;;;;;0.50;0.50;;;7.50;64.70;;;;;;6203437;28;20515;-64
2023/02/02 02:54:12;;;;;;;0.47;0.47;;;7.50;64.40;;;;;;6203726;28;20855;-64
2023/02/02 02:57:43;;;;;;;0.50;0.40;;;7.50;63.70;;;;;;6203651;28;20495;-64
2023/02/02 03:00:56;;;;;;;0.60;0.50;;;7.60;63.60;;;;;;6203239;28;20531;-64
2023/02/02 03:04:09;;;;;;;5.00;0.60;;;7.70;64.00;;;;;;6203643;28;20535;-64
2023/02/02 03:07:21;;;;;;;0.50;0.40;;;7.60;64.10;;;;;;6203598;28;20491;-64
2023/02/02 03:10:29;;;;;;;0.67;0.60;;;7.60;64.20;;;;;;6203221;28;20995;-64
2023/02/02 03:13:32;;;;;;;0.70;0.50;;;7.60;64.00;;;;;;6203177;28;20798;-64
2023/02/02 03:16:37;;;;;;;0.77;0.60;;;7.60;63.80;;;;;;6201950;28;20972;-64
2023/02/02 03:19:41;;;;;;;0.57;0.57;;;7.70;63.90;;;;;;6202945;28;20485;-64
2023/02/02 03:22:45;;;;;;;0.60;0.60;;;7.60;63.60;;;;;;6202813;28;20546;-64
2023/02/02 03:25:48;;;;;;;0.93;0.60;;;7.60;63.70;;;;;;6202945;28;20484;-64
2023/02/02 03:28:52;;;;;;;0.97;0.50;;;7.60;63.80;;;;;;6193665;28;20484;-64
2023/02/02 03:31:55;;;;;;;0.40;0.40;;;7.60;64.10;;;;;;6202593;28;20824;-64
2023/02/02 03:35:00;;;;;;;1.23;0.60;;;7.60;64.20;;;;;;6202538;28;20469;-65
2023/02/02 03:38:03;;;;;;;0.60;0.60;;;7.60;64.20;;;;;;6202605;28;20988;-64
2023/02/02 03:41:06;;;;;;;1.10;0.60;;;7.70;64.10;;;;;;6202380;28;20876;-63
2023/02/02 03:44:10;;;;;;;0.50;0.40;;;7.60;64.20;;;;;;6202534;28;20972;-64
2023/02/02 03:47:13;;;;;;;0.57;0.57;;;7.50;64.50;;;;;;6202190;28;20559;-64
2023/02/02 03:50:18;;;;;;;0.60;0.50;;;7.60;64.90;;;;;;6201918;28;20803;-64
2023/02/02 03:53:21;;;;;;;0.60;0.60;;;7.60;65.20;;;;;;6202090;28;20469;-64
2023/02/02 03:56:24;;;;;;;1.00;0.57;;;7.60;65.20;;;;;;6202141;28;20473;-64
2023/02/02 03:59:28;;;;;;;0.60;0.57;;;7.60;65.60;;;;;;6201935;28;20473;-64
2023/02/02 04:02:31;;;;;;;0.60;0.50;;;7.60;65.80;;;;;;6202055;28;20587;-64
2023/02/02 04:05:35;;;;;;;0.80;0.60;;;7.60;66.60;;;;;;6201855;28;21004;-64
2023/02/02 04:08:39;;;;;;;0.60;0.50;;;7.50;65.90;;;;;;6201836;28;20472;-64
2023/02/02 04:11:42;;;;;;;0.60;0.60;;;7.50;66.20;;;;;;6202029;28;20496;-64
2023/02/02 04:14:45;;;;;;;0.60;0.53;;;7.50;66.50;;;;;;6187362;28;20470;-64
2023/02/02 04:17:48;;;;;;;1.87;0.50;;;7.50;66.60;;;;;;6178339;28;20484;-64
2023/02/02 04:20:58;;;;;;;1.90;0.70;;;7.50;67.00;;;;;;6178940;28;20836;-64
2023/02/02 04:24:01;;;;;;;0.50;0.50;;;7.50;67.00;;;;;;6178366;28;20438;-64
2023/02/02 04:27:04;;;;;;;0.60;0.60;;;7.60;66.80;;;;;;6191945;28;20453;-64
2023/02/02 04:30:09;;;;;;;0.87;0.60;;;7.60;66.80;;;;;;6196323;28;20476;-64
2023/02/02 04:33:12;;;;;;;0.60;0.60;;;7.60;67.20;;;;;;6201523;28;20464;-64
2023/02/02 04:36:16;;;;;;;1.27;0.60;;;7.60;67.10;;;;;;6201384;28;20468;-64
2023/02/02 04:39:20;;;;;;;0.50;0.40;;;7.50;67.20;;;;;;6201502;28;20473;-64
2023/02/02 04:42:23;;;;;;;0.60;0.60;;;7.60;67.70;;;;;;6201418;28;20531;-64
2023/02/02 04:45:26;;;;;;;0.70;0.70;;;7.60;67.70;;;;;;6200947;28;20464;-64
2023/02/02 04:48:30;;;;;;;0.50;0.50;;;7.60;67.90;;;;;;6202347;28;20472;-64
2023/02/02 04:51:35;;;;;;;1.07;0.50;;;7.60;68.30;;;;;;6201580;28;20469;-64
2023/02/02 04:54:38;;;;;;;0.50;0.50;;;7.60;68.40;;;;;;6201151;28;20795;-64
2023/02/02 04:57:42;;;;;;;0.50;0.50;;;7.60;69.40;;;;;;6201392;28;20472;-64
2023/02/02 05:00:45;;;;;;;0.40;0.40;;;7.70;70.40;;;;;;6201169;28;20472;-64
2023/02/02 05:03:49;;;;;;;0.90;0.63;;;7.70;72.00;;;;;;6201397;28;20497;-64
2023/02/02 05:06:53;;;;;;;0.50;0.50;;;7.50;75.20;;;;;;6201474;28;20479;-64
2023/02/02 05:09:57;;;;;;;0.80;0.77;;;7.50;78.30;;;;;;6201175;28;20489;-64
2023/02/02 05:13:00;;;;;;;0.60;0.47;;;7.40;79.60;;;;;;6200870;28;20468;-64
2023/02/02 05:16:04;;;;;;;0.77;0.73;;;7.20;82.80;;;;;;6200963;28;20537;-65
2023/02/02 05:19:07;;;;;;;0.60;0.60;;;7.20;84.60;;;;;;6201529;28;20488;-65
2023/02/02 05:22:11;;;;;;;0.70;0.50;;;7.10;87.10;;;;;;6200855;28;20489;-65
2023/02/02 05:25:15;;;;;;;0.60;0.60;;;7.10;88.20;;;;;;6200811;28;20810;-65
2023/02/02 05:28:18;;;;;;;0.60;0.50;;;7.20;90.10;;;;;;6201576;28;20484;-64
2023/02/02 05:31:21;;;;;;;1.63;0.60;;;7.30;90.80;;;;;;6203141;28;20473;-64
2023/02/02 05:34:25;;;;;;;0.60;0.60;;;7.30;91.70;;;;;;6200802;28;20623;-64
2023/02/02 05:37:29;;;;;;;0.70;0.70;;;7.40;92.60;;;;;;6200495;28;20837;-65
2023/02/02 05:40:33;;;;;;;2.10;0.80;;;7.50;93.10;;;;;;6204392;28;20484;-64
2023/02/02 05:43:36;;;;;;;1.17;0.80;;;7.40;93.50;;;;;;6204944;28;20960;-64
2023/02/02 05:46:40;;;;;;;0.80;0.70;;;7.30;94.10;;;;;;6205486;28;20495;-65
2023/02/02 05:49:43;;;;;;;0.70;0.70;;;7.20;94.70;;;;;;6204976;28;20488;-65
2023/02/02 05:52:48;;;;;;;1.23;1.07;;;7.10;95.80;;;;;;6204519;28;20802;-65
2023/02/02 05:55:51;;;;;;;0.80;0.67;;;7.00;96.90;;;;;;6204478;28;20895;-64
2023/02/02 05:58:55;;;;;;;0.93;0.90;;;6.90;97.80;;;;;;6204792;28;20484;-64
2023/02/02 06:01:58;;;;;;;0.83;0.80;;;6.80;99.00;;;;;;6204862;28;20469;-64
2023/02/02 06:05:01;;;;;;;0.80;0.80;;;6.80;99.80;;;;;;6204390;28;20496;-64
2023/02/02 06:08:06;;;;;;;0.93;0.70;;;6.80;99.90;;;;;;6203980;28;20484;-64
2023/02/02 06:11:10;;;;;;;1.00;1.00;;;6.60;99.90;;;;;;6204785;28;20469;-64
2023/02/02 06:14:14;;;;;;;0.80;0.77;;;6.50;99.90;;;;;;6204200;28;20477;-64
2023/02/02 06:17:17;;;;;;;0.77;0.77;;;6.30;99.90;;;;;;6204670;28;20957;-64
2023/02/02 06:20:21;;;;;;;0.80;0.80;;;6.20;99.90;;;;;;6204217;28;20491;-64
2023/02/02 06:23:26;;;;;;;0.80;0.80;;;6.20;99.90;;;;;;6204577;28;20477;-64
2023/02/02 06:26:29;;;;;;;0.80;0.67;;;6.10;99.90;;;;;;6203926;28;20481;-64
2023/02/02 06:29:32;;;;;;;0.90;0.90;;;6.00;99.90;;;;;;6203812;28;20489;-64
2023/02/02 06:32:36;;;;;;;0.83;0.80;;;6.00;99.90;;;;;;6204189;28;20823;-63
2023/02/02 06:35:39;;;;;;;1.27;1.00;;;5.90;99.90;;;;;;6205934;28;20484;-64
2023/02/02 06:38:43;;;;;;;0.90;0.90;;;5.90;99.90;;;;;;6203864;28;20966;-64
2023/02/02 06:41:47;;;;;;;0.83;0.83;;;5.90;99.90;;;;;;6199687;28;20488;-63
2023/02/02 06:44:50;;;;;;;1.90;0.80;;;5.90;99.90;;;;;;6204202;28;20473;-64
2023/02/02 06:47:54;;;;;;;1.73;1.63;;;5.90;99.90;;;;;;6179291;28;20488;-64
2023/02/02 06:50:59;;;;;;;1.83;1.63;;;5.90;99.90;;;;;;6178241;28;20769;-64
2023/02/02 06:54:03;;;;;;;1.87;1.77;;;5.90;99.90;;;;;;6179982;28;20465;-64
2023/02/02 06:57:08;;;;;;;1.50;1.40;;;6.00;99.90;;;;;;6179737;28;20554;-64
2023/02/02 07:00:13;;;;;;;1.43;1.20;;;6.00;99.90;;;;;;6179177;28;20470;-64
2023/02/02 07:03:16;;;;;;;1.03;0.70;;;6.00;99.90;;;;;;6179472;28;20917;-64
2023/02/02 07:06:21;;;;;;;1.00;0.83;;;6.10;99.90;;;;;;6179209;28;20469;-64
2023/02/02 07:09:25;;;;;;;0.90;0.90;;;6.10;99.90;;;;;;6179076;28;20959;-64
2023/02/02 07:12:29;;;;;;;1.00;1.00;;;6.20;99.90;;;;;;6179103;28;20554;-64
2023/02/02 07:15:32;;;;;;;1.57;1.47;;;6.20;99.90;;;;;;6178837;28;20989;-64
2023/02/02 07:18:36;;;;;;;1.13;1.13;;;6.20;99.90;;;;;;6178788;28;20481;-64
2023/02/02 07:21:39;;;;;;;1.40;1.30;;;6.20;99.90;;;;;;6185100;28;20968;-64
2023/02/02 07:24:44;;;;;;;1.57;1.47;;;6.20;99.90;;;;;;6195852;28;20486;-64
2023/02/02 07:27:47;;;;;;;2.03;1.83;;;6.30;99.90;;;;;;6185670;28;20595;-64
2023/02/02 07:30:51;;;;;;;2.30;1.90;;;6.40;99.90;;;;;;6194977;28;20473;-64
2023/02/02 07:33:54;;;;;;;1.10;1.10;;;6.40;99.90;;;;;;6178519;28;20477;-64
2023/02/02 07:36:58;;;;;;;1.63;1.40;;;6.50;99.90;;;;;;6178614;28;20485;-64
2023/02/02 07:40:03;;;;;;;2.07;1.87;;;6.60;99.90;;;;;;6178688;28;20481;-64
2023/02/02 07:43:06;;;;;;;2.80;2.57;;;6.70;99.90;;;;;;6178632;28;20478;-63
2023/02/02 07:46:13;;;;;;;2.63;2.43;;;6.70;99.90;;;;;;6177904;28;20489;-63
2023/02/02 07:49:19;;;;;;;1.57;1.40;;;6.80;99.90;;;;;;6178121;28;20572;-64
2023/02/02 07:52:22;;;;;;;1.83;1.70;;;6.90;99.90;;;;;;6177804;28;20954;-63
2023/02/02 07:55:26;;;;;;;1.70;1.53;;;7.00;99.90;;;;;;6177865;28;20482;-63
2023/02/02 07:58:30;;;;;;;2.83;1.77;;;7.00;99.90;;;;;;6178196;28;20506;-64
2023/02/02 08:01:33;;;;;;;1.50;1.40;;;7.10;99.90;;;;;;6177706;28;21005;-64
2023/02/02 08:04:37;;;;;;;1.83;1.53;;;7.10;99.90;;;;;;6177854;28;20512;-64
2023/02/02 08:07:40;;;;;;;2.03;1.40;;;7.10;99.90;;;;;;6178620;28;20474;-64
2023/02/02 08:10:49;;;;;;;2.97;1.47;;;7.20;99.90;;;;;;6177326;28;20962;-64
2023/02/02 08:13:53;;;;;;;2.70;2.50;;;7.20;99.90;;;;;;6177188;28;20989;-64
2023/02/02 08:16:56;;;;;;;2.53;2.33;;;7.30;99.90;;;;;;6177397;28;20550;-64
2023/02/02 08:20:00;;;;;;;2.47;2.27;;;7.30;99.90;;;;;;6177503;28;20493;-64
2023/02/02 08:23:03;;;;;;;5.23;3.00;;;7.20;99.90;;;;;;6195552;28;20815;-64
2023/02/02 08:26:10;;;;;;;4.90;2.53;;;7.20;99.90;;;;;;6183484;28;20824;-64
2023/02/02 08:29:16;;;;;;;3.03;2.30;;;7.20;99.90;;;;;;6196399;28;20496;-64
2023/02/02 08:32:19;;;;;;;3.37;2.50;;;7.20;99.90;;;;;;6181682;28;20473;-64
2023/02/02 08:35:22;;;;;;;1.70;1.60;;;7.20;99.90;;;;;;6177172;28;20488;-64
2023/02/02 08:38:26;;;;;;;2.30;2.20;;;7.20;99.90;;;;;;6176983;28;20478;-64
2023/02/02 08:41:31;;;;;;;2.70;1.80;;;7.20;99.90;;;;;;6177411;28;20470;-64
2023/02/02 08:44:34;;;;;;;4.33;2.57;;;7.20;99.90;;;;;;6177144;28;20493;-64
2023/02/02 08:47:57;;;;;;;10.93;6.80;;;7.20;99.90;;;;;;6176476;28;20573;-64
2023/02/02 08:51:15;;;;;;;4.20;3.50;;;7.20;99.90;;;;;;6177032;28;20601;-64
2023/02/02 08:54:18;;;;;;;3.53;2.70;;;7.30;99.90;;;;;;6177322;28;20496;-64
2023/02/02 08:57:22;;;;;;;3.40;2.07;;;7.30;99.90;;;;;;6176991;28;20798;-64
2023/02/02 09:00:26;;;;;;;2.90;2.20;;;7.30;99.90;;;;;;6177046;28;20473;-64
2023/02/02 09:03:29;;;;;;;2.20;2.00;;;7.40;99.90;;;;;;6177094;28;20480;-64
2023/02/02 09:06:34;;;;;;;1.93;1.73;;;7.40;99.90;;;;;;6176857;28;20477;-65
2023/02/02 09:09:37;;;;;;;1.93;1.70;;;7.40;99.90;;;;;;6176467;28;20493;-65
2023/02/02 09:12:41;;;;;;;2.53;1.50;;;7.50;99.90;;;;;;6176850;28;20482;-65
2023/02/02 09:15:45;;;;;;;1.80;1.70;;;7.50;99.90;;;;;;6181473;28;20550;-64
2023/02/02 09:18:48;;;;;;;2.10;2.00;;;7.60;99.90;;;;;;6181447;28;20488;-65
2023/02/02 09:21:51;;;;;;;2.80;1.50;;;7.60;99.90;;;;;;6189691;28;20944;-65
2023/02/02 09:24:54;;;;;;;1.93;1.73;;;7.50;99.90;;;;;;6197058;28;20481;-65
2023/02/02 09:28:01;;;;;;;4.57;4.17;;;7.60;99.90;;;;;;6190340;28;21058;-65
2023/02/02 09:31:05;;;;;;;4.43;4.03;;;7.70;99.90;;;;;;6195921;28;20476;-65
2023/02/02 09:34:10;;;;;;;2.10;1.80;;;7.80;99.90;;;;;;6181005;28;20800;-65
2023/02/02 09:37:14;;;;;;;1.90;1.80;;;7.90;99.90;;;;;;6181201;28;20461;-65
2023/02/02 09:40:19;;;;;;;1.00;1.00;;;7.90;99.90;;;;;;6181224;28;20496;-65
2023/02/02 09:43:39;;;;;;;2.13;1.93;;;7.50;99.90;;;;;;6181228;28;20525;-65
2023/02/02 09:46:56;;;;;;;1.43;1.03;;;7.40;99.90;;;;;;6181241;28;20482;-65
2023/02/02 09:50:03;;;;;;;2.10;1.20;;;7.30;99.90;;;;;;6178716;28;20478;-65
2023/02/02 09:53:14;;;;;;;2.83;2.10;;;7.00;99.90;;;;;;6181656;28;20488;-65
2023/02/02 09:56:24;;;;;;;1.80;1.70;;;6.80;99.90;;;;;;6181263;28;20537;-65
2023/02/02 09:59:34;;;;;;;2.30;2.10;;;6.90;99.90;;;;;;6180736;28;20485;-65
2023/02/02 10:02:43;;;;;;;2.17;2.00;;;6.80;99.90;;;;;;6180824;28;20484;-65
2023/02/02 10:05:55;;;;;;;1.70;1.60;;;6.80;99.90;;;;;;6180651;28;20473;-65
2023/02/02 10:09:06;;;;;;;3.20;1.80;;;6.90;99.90;;;;;;6181025;28;20484;-65
2023/02/02 10:12:30;;;;;;;1.63;1.53;;;6.80;99.90;;;;;;6182156;28;20452;-65
2023/02/02 10:15:40;;;;;;;3.07;2.10;;;6.70;99.90;;;;;;6180878;28;20482;-65
2023/02/02 10:18:50;;;;;;;3.33;3.03;;;6.60;99.90;;;;;;6180857;28;20481;-64
2023/02/02 10:22:03;;;;;;;3.60;3.13;;;6.30;99.90;;;;;;6188579;28;20480;-64
2023/02/02 10:25:11;;;;;;;4.03;3.00;;;6.20;99.90;;;;;;6194116;28;20481;-65
2023/02/02 10:28:20;;;;;;;3.70;3.00;;;6.20;99.90;;;;;;6190904;28;20504;-63
2023/02/02 10:31:36;;;;;;;3.50;3.23;;;6.20;99.90;;;;;;6191608;28;20485;-64
2023/02/02 10:34:42;;;;;;;8.30;5.30;;;5.70;99.90;;;;;;6180133;28;20486;-64
2023/02/02 10:37:50;;;;;;;4.50;4.10;;;5.60;99.90;;;;;;6179789;28;20983;-64
2023/02/02 10:41:01;;;;;;;5.93;4.37;;;5.70;99.90;;;;;;6180239;28;20480;-64
2023/02/02 10:44:19;;;;;;;6.13;5.50;;;5.70;99.90;;;;;;6179766;28;20470;-64
2023/02/02 10:47:28;;;;;;;5.27;4.50;;;5.90;99.90;;;;;;6179586;28;20547;-64
2023/02/02 10:50:31;;;;;;;5.93;4.90;;;6.00;99.90;;;;;;6179745;28;20501;-64
2023/02/02 10:53:34;;;;;;;4.70;3.33;;;6.00;99.90;;;;;;6179773;28;20488;-65
2023/02/02 10:56:42;;;;;;;4.00;3.60;;;6.00;99.90;;;;;;6179389;28;20489;-64
2023/02/02 10:59:57;;;;;;;5.43;4.77;;;6.10;99.90;;;;;;6179370;28;20800;-64
2023/02/02 11:03:03;;;;;;;3.97;3.70;;;6.30;99.90;;;;;;6179372;28;20450;-64
2023/02/02 11:09:32;;;;;;;5.87;4.17;;;6.50;99.90;;;;;;6178701;28;20499;-64
2023/02/02 11:12:41;;;;;;;4.33;3.47;;;6.60;99.90;;;;;;6179869;28;20481;-64
2023/02/02 11:15:44;;;;;;;3.57;3.27;;;6.70;99.90;;;;;;6179272;28;20472;-64
2023/02/02 11:18:49;;;;;;;3.47;3.17;;;6.80;99.90;;;;;;6179366;28;20524;-65
2023/02/02 11:21:55;;;;;;;4.07;3.70;;;6.90;99.90;;;;;;6186791;28;20488;-64
2023/02/02 11:25:02;;;;;;;4.30;3.53;;;7.10;99.90;;;;;;6194182;28;20804;-64
2023/02/02 11:28:17;;;;;;;3.80;3.40;;;7.10;99.90;;;;;;6189160;28;20492;-63
2023/02/02 11:31:31;;;;;;;3.50;3.20;;;7.10;99.90;;;;;;6191101;28;20534;-63
2023/02/02 11:34:36;;;;;;;3.07;2.87;;;7.00;99.90;;;;;;6178781;28;20593;-64
2023/02/02 11:37:53;;;;;;;3.73;3.10;;;7.10;99.90;;;;;;6177812;28;20473;-64
2023/02/02 11:41:02;;;;;;;3.37;3.07;;;7.00;99.90;;;;;;6178379;28;20470;-63
2023/02/02 11:44:07;;;;;;;3.70;3.40;;;7.10;99.90;;;;;;6178290;28;20509;-63
2023/02/02 11:47:20;;;;;;;2.87;2.60;;;7.20;99.90;;;;;;6178350;28;20474;-64
2023/02/02 11:50:27;;;;;;;6.17;3.70;;;7.30;99.90;;;;;;6178026;28;20483;-63
2023/02/02 11:53:32;;;;;;;3.80;3.50;;;7.40;99.90;;;;;;6178266;28;20484;-63
2023/02/02 11:56:37;;;;;;;6.63;3.37;;;7.60;99.90;;;;;;6173316;28;20478;-63
2023/02/02 11:59:43;;;;;;;4.90;3.77;;;7.60;99.90;;;;;;6178510;28;20947;-63
2023/02/02 12:02:47;;;;;;;3.37;3.17;;;7.50;99.90;;;;;;6177933;28;20474;-63
2023/02/02 12:05:52;;;;;;;4.60;3.40;;;7.60;99.90;;;;;;6177342;28;20602;-63
2023/02/02 12:09:00;;;;;;;4.30;3.90;;;7.70;99.90;;;;;;6177890;28;20765;-63
2023/02/02 12:12:08;;;;;;;4.97;4.60;;;7.90;99.90;;;;;;6177637;28;20887;-63
2023/02/02 12:15:23;;;;;;;5.70;5.20;;;8.10;99.90;;;;;;6177124;28;20914;-63
2023/02/02 12:18:38;;;;;;;15.33;13.40;;;8.20;99.90;;;;;;6177323;28;20466;-63
2023/02/02 12:21:51;;;;;;;15.07;12.43;;;8.20;99.90;;;;;;6183985;28;20473;-63
2023/02/02 12:24:59;;;;;;;12.40;9.43;;;8.30;99.90;;;;;;6193494;28;20489;-63
2023/02/02 12:28:15;;;;;;;32.43;29.27;;;8.30;99.90;;;;;;6186296;28;20477;-63
2023/02/02 12:31:26;;;;;;;6.33;5.77;;;8.30;99.90;;;;;;6190191;28;20481;-63
2023/02/02 12:34:37;;;;;;;6.00;5.50;;;8.00;99.90;;;;;;6176907;28;20473;-63
2023/02/02 12:37:52;;;;;;;5.83;5.20;;;8.00;99.90;;;;;;6176964;28;20502;-64
2023/02/02 12:41:25;;;;;;;5.60;5.10;;;8.10;99.90;;;;;;6177230;28;20485;-63
2023/02/02 12:44:39;;;;;;;8.77;7.97;;;8.20;99.90;;;;;;6177339;28;20554;-64
2023/02/02 12:47:54;;;;;;;5.60;5.20;;;8.20;99.90;;;;;;6177359;28;20469;-64
2023/02/02 12:51:07;;;;;;;4.90;4.50;;;8.30;99.90;;;;;;6177096;28;20449;-63
2023/02/02 12:54:26;;;;;;;5.47;5.00;;;8.30;99.90;;;;;;6177030;28;20445;-63
2023/02/02 12:58:00;;;;;;;5.77;5.27;;;8.30;99.90;;;;;;6172782;28;20478;-63
2023/02/02 13:01:16;;;;;;;4.40;4.10;;;8.30;99.90;;;;;;6176971;28;20474;-63
2023/02/02 13:04:46;;;;;;;4.13;3.83;;;8.40;99.90;;;;;;6176976;28;20525;-63
2023/02/02 13:08:11;;;;;;;5.70;4.83;;;8.40;99.90;;;;;;6176704;28;20497;-63
2023/02/02 13:11:29;;;;;;;12.83;11.97;;;8.30;99.90;;;;;;6176806;28;20563;-63
2023/02/02 13:14:36;;;;;;;5.40;4.90;;;8.30;99.90;;;;;;6176548;28;20477;-63
2023/02/02 13:17:42;;;;;;;8.67;7.87;;;8.40;99.90;;;;;;6176754;28;20973;-65
2023/02/02 13:20:50;;;;;;;5.77;5.30;;;8.50;99.90;;;;;;6176605;28;20485;-63
2023/02/02 13:23:58;;;;;;;19.10;17.63;;;8.50;99.90;;;;;;6200699;28;20472;-63
2023/02/02 13:27:05;;;;;;;4.60;4.20;;;8.50;99.90;;;;;;6177302;28;20472;-63
2023/02/02 13:30:16;;;;;;;7.53;6.90;;;8.50;99.90;;;;;;6198405;28;20783;-63
2023/02/02 13:33:24;;;;;;;15.07;13.67;;;8.40;99.90;;;;;;6176440;28;20966;-63
2023/02/02 13:36:35;;;;;;;4.77;4.40;;;8.40;99.90;;;;;;6176581;28;20567;-63
2023/02/02 13:39:44;;;;;;;4.20;3.80;;;8.30;99.90;;;;;;6176321;28;20478;-63
2023/02/02 13:42:54;;;;;;;4.13;3.73;;;8.20;99.90;;;;;;6176694;28;20484;-63
2023/02/02 13:46:09;;;;;;;5.70;4.20;;;8.10;99.90;;;;;;6176606;28;20804;-63
2023/02/02 13:49:17;;;;;;;4.70;4.30;;;8.00;99.90;;;;;;6176124;28;20536;-63
2023/02/02 13:52:40;;;;;;;3.90;3.60;;;7.90;99.90;;;;;;6176559;28;20500;-63
2023/02/02 13:55:58;;;;;;;3.53;3.27;;;7.70;99.90;;;;;;6177538;28;20492;-63
2023/02/02 13:59:22;;;;;;;3.60;3.30;;;7.70;99.90;;;;;;6176544;28;20492;-63
2023/02/02 14:02:33;;;;;;;3.47;3.17;;;7.70;99.90;;;;;;6180894;28;20544;-63
2023/02/02 14:05:40;;;;;;;3.60;3.27;;;7.70;99.90;;;;;;6167131;28;20555;-63
2023/02/02 14:08:51;;;;;;;3.10;2.80;;;7.70;99.90;;;;;;6180485;28;20485;-63
2023/02/02 14:11:58;;;;;;;18.17;16.47;;;7.60;99.90;;;;;;6180636;28;20484;-63
2023/02/02 14:15:05;;;;;;;32.43;29.40;;;7.70;99.90;;;;;;6180617;28;20501;-63
2023/02/02 14:18:09;;;;;;;5.07;4.67;;;7.80;99.90;;;;;;6180330;28;20945;-63
2023/02/02 14:21:50;;;;;;;3.23;2.93;;;7.70;99.90;;;;;;6182820;28;21009;-63
2023/02/02 14:24:54;;;;;;;3.03;2.73;;;7.60;99.90;;;;;;6195856;28;20954;-64
2023/02/02 14:27:58;;;;;;;2.70;2.50;;;7.60;99.90;;;;;;6187844;28;20979;-64
2023/02/02 14:31:50;;;;;;;5.63;2.63;;;7.60;99.90;;;;;;6195516;28;20547;-64
2023/02/02 14:34:55;;;;;;;2.90;2.70;;;7.60;99.90;;;;;;6114118;28;20484;-64
2023/02/02 14:38:05;;;;;;;2.00;1.90;;;7.60;99.90;;;;;;6179819;28;20474;-64
2023/02/02 14:43:43;;;;;;;3.20;2.77;;;7.50;99.90;;;;;;6179939;28;20529;-64
2023/02/02 14:45:21;;;;;;;2.63;2.27;;;7.50;99.90;;;;;;6180411;28;20508;-63
2023/02/02 14:48:26;;;;;;;2.40;2.20;;;7.30;99.90;;;;;;6156545;28;20540;-63
2023/02/02 14:51:33;;;;;;;3.33;2.13;;;7.20;99.90;;;;;;6179570;28;20776;-63
2023/02/02 14:54:39;;;;;;;2.40;2.03;;;7.20;99.90;;;;;;6179597;28;20970;-63
2023/02/02 14:57:43;;;;;;;3.37;2.47;;;7.10;99.90;;;;;;6180090;28;20536;-64
2023/02/02 15:00:56;;;;;;;2.70;2.33;;;7.00;99.90;;;;;;6186845;28;20532;-63
2023/02/02 15:04:24;;;;;;;2.97;2.37;;;6.90;99.90;;;;;;6181686;28;20481;-63
2023/02/02 15:07:53;;;;;;;3.20;2.60;;;6.80;99.90;;;;;;6180014;28;20540;-63
2023/02/02 15:11:26;;;;;;;6.40;4.57;;;6.80;99.90;;;;;;6165438;28;20474;-63
2023/02/02 15:14:35;;;;;;;4.23;3.80;;;6.70;99.90;;;;;;6179178;28;20967;-63
2023/02/02 15:17:50;;;;;;;4.33;3.93;;;6.70;99.90;;;;;;6179031;28;20482;-63
2023/02/02 15:20:59;;;;;;;3.60;3.30;;;6.70;99.90;;;;;;6179148;28;20544;-64
2023/02/02 15:24:03;;;;;;;3.50;3.20;;;6.70;99.90;;;;;;6180574;28;20764;-63
2023/02/02 15:27:07;;;;;;;4.40;4.00;;;6.70;99.90;;;;;;6201563;28;20441;-63
2023/02/02 15:30:13;;;;;;;5.03;4.03;;;6.70;99.90;;;;;;6179163;28;20810;-64
2023/02/02 15:33:28;;;;;;;2.53;2.33;;;6.70;99.90;;;;;;6178991;28;20548;-63
2023/02/02 15:36:36;;;;;;;1.57;1.20;;;6.70;99.90;;;;;;6178536;28;20861;-63
2023/02/02 15:39:42;;;;;;;0.97;0.97;;;6.70;99.90;;;;;;6178879;28;20494;-63
2023/02/02 15:42:54;;;;;;;1.00;1.00;;;6.50;99.90;;;;;;6178618;28;20488;-63
2023/02/02 15:46:02;;;;;;;1.00;1.00;;;6.40;99.90;;;;;;6179773;28;20470;-63
2023/02/02 15:49:27;;;;;;;1.57;1.47;;;6.50;99.90;;;;;;6185706;28;20478;-63
2023/02/02 15:52:46;;;;;;;1.80;1.70;;;6.40;99.90;;;;;;6179390;28;20553;-63
2023/02/02 15:55:50;;;;;;;1.27;1.27;;;6.50;99.90;;;;;;6178529;28;20481;-62
2023/02/02 15:58:55;;;;;;;1.23;1.13;;;6.50;99.90;;;;;;6178108;28;20517;-62
2023/02/02 16:02:15;;;;;;;2.30;1.20;;;6.50;99.90;;;;;;6177928;28;20909;-64
2023/02/02 16:05:40;;;;;;;1.87;1.77;;;6.40;99.90;;;;;;6178437;28;20482;-63
2023/02/02 16:08:45;;;;;;;1.80;1.70;;;6.40;99.90;;;;;;6178423;28;20954;-63
2023/02/02 16:11:50;;;;;;;1.90;1.43;;;6.50;99.90;;;;;;6191371;28;20511;-63
2023/02/02 16:14:54;;;;;;;1.70;1.60;;;6.40;99.90;;;;;;6163421;28;20566;-63
2023/02/02 16:17:59;;;;;;;1.40;1.30;;;6.40;99.90;;;;;;6177848;28;20468;-63
2023/02/02 16:21:09;;;;;;;1.67;1.57;;;6.40;99.90;;;;;;6177904;28;20517;-63
2023/02/02 16:24:17;;;;;;;1.77;1.67;;;6.40;99.90;;;;;;6178540;28;20434;-64
2023/02/02 16:27:23;;;;;;;2.27;1.40;;;6.40;99.90;;;;;;6193542;28;20796;-64
2023/02/02 16:30:29;;;;;;;1.67;1.57;;;6.30;99.90;;;;;;6201792;28;20535;-63
2023/02/02 16:33:41;;;;;;;1.70;1.40;;;6.30;99.90;;;;;;6202769;28;20507;-64
2023/02/02 16:36:45;;;;;;;1.83;1.73;;;6.30;99.90;;;;;;6203153;28;20485;-63
2023/02/02 16:39:49;;;;;;;1.63;1.53;;;6.40;99.90;;;;;;6201684;28;20480;-64
2023/02/02 16:43:05;;;;;;;1.90;1.80;;;6.40;99.90;;;;;;6201277;28;20481;-64
2023/02/02 16:46:11;;;;;;;3.73;2.67;;;6.40;99.90;;;;;;6201431;28;20987;-64